Tuesday, September 19, 2017, 7:47 AM EDT
Back to Local

KEWN, New Bern, Craven County Regional Airport

Location: New Bern, NC, United States Lat: 35.068
Local Time: 7:47 AM EDT (11:47 GMT) Lon: -77.047
Time Zone: US/Eastern Elev: 16 ft

Show me the last for .
Show Decoded

2017-09-19 06:54 METAR KEWN 191054Z 32007KT 9SM OVC011 21/20 A2991 RMK AO2 SLP126 T02060200 =
2017-09-19 05:54 METAR KEWN 190954Z 32008KT 9SM OVC011 21/20 A2989 RMK AO2 SLP121 T02110200 =
2017-09-19 04:54 METAR KEWN 190854Z AUTO 33007KT 9SM BKN011 21/20 A2988 RMK AO2 SLP119 T02110200
                 56003 =
2017-09-19 04:47 METAR KEWN 190847Z AUTO 33008KT 9SM BKN011 21/20 A2988 RMK AO2 T02110200 =
2017-09-19 04:21 METAR KEWN 190821Z AUTO 33008KT 10SM SCT011 21/20 A2989 RMK AO2 T02110200 =
2017-09-19 03:54 METAR KEWN 190754Z AUTO 34008KT 10SM BKN011 21/21 A2989 RMK AO2 SLP120 T02110206
                 =
2017-09-19 02:54 METAR KEWN 190654Z AUTO 34009KT 10SM OVC012 22/21 A2989 RMK AO2 SLP121 T02170206
                 =
2017-09-19 02:22 METAR KEWN 190622Z AUTO 34006KT 10SM BKN012 22/21 A2989 RMK AO2 T02170206 =
2017-09-19 02:05 METAR KEWN 190605Z AUTO 33009KT 10SM SCT014 22/21 A2989 RMK AO2 T02170206 =
2017-09-19 01:54 METAR KEWN 190554Z AUTO 34007G18KT 10SM BKN016 22/21 A2989 RMK AO2 SLP122
                 T02170211 10256 20217 58019 =
2017-09-19 01:27 METAR KEWN 190527Z AUTO VRB06KT 9SM BKN019 22/21 A2990 RMK AO2 T02170211 =
2017-09-19 00:54 METAR KEWN 190454Z AUTO 35006KT 10SM CLR 22/21 A2992 RMK AO2 SLP130 T02170211
                 402890211 =
2017-09-18 23:54 METAR KEWN 190354Z AUTO 32006KT 10SM FEW016 22/22 A2994 RMK AO2 SLP138 T02220217
                 =
2017-09-18 23:26 METAR KEWN 190326Z AUTO 35007KT 10SM SCT020 22/22 A2994 RMK AO2 T02220217 =
2017-09-18 23:04 METAR KEWN 190304Z AUTO 34006KT 10SM BKN018 23/22 A2995 RMK AO2 T02280217 =
2017-09-18 22:54 METAR KEWN 190254Z AUTO 35007KT 10SM SCT018 23/21 A2995 RMK AO2 SLP141 T02280211
                 51007 =
2017-09-18 21:54 METAR KEWN 190154Z AUTO 34007KT 10SM CLR 23/21 A2994 RMK AO2 SLP139 T02280211 =
2017-09-18 20:54 METAR KEWN 190054Z 01009G18KT 10SM FEW031 SCT041 OVC065 25/21 A2995 RMK AO2
                 SLP141 T02500206 =
2017-09-18 19:54 METAR KEWN 182354Z 02009KT 10SM SCT042 OVC060 26/19 A2993 RMK AO2 SLP134
                 T02560194 10289 20256 53004 =
2017-09-18 18:54 METAR KEWN 182254Z 35008KT 10SM OVC055 27/19 A2991 RMK AO2 SLP127 T02670194 =
2017-09-18 17:54 METAR KEWN 182154Z AUTO 01009G16KT 10SM CLR 28/19 A2991 RMK AO2 SLP127 T02780189
                 =
2017-09-18 16:54 METAR KEWN 182054Z AUTO 01009KT 10SM CLR 29/19 A2992 RMK AO2 SLP130 T02890189
                 56013 =
2017-09-18 15:54 METAR KEWN 181954Z AUTO 36009KT 10SM FEW049 29/19 A2992 RMK AO2 SLP131 T02890189
                 =
2017-09-18 14:54 METAR KEWN 181854Z AUTO 36010G19KT 10SM CLR 29/18 A2994 RMK AO2 SLP137 T02890183
                 =
2017-09-18 13:54 METAR KEWN 181754Z AUTO 01011KT 10SM FEW034 SCT045 SCT050 27/20 A2995 RMK AO2
                 SLP143 T02720200 10283 20222 =
2017-09-18 12:54 METAR KEWN 181654Z AUTO 03009KT 350V060 10SM 27/22 A2996 RMK AO2 SLP146
                 T02720217 =
2017-09-18 11:54 METAR KEWN 181554Z 02014G18KT 10SM FEW026 BKN034 26/21 A2998 RMK AO2 SLP150
                 T02610211 =
2017-09-18 11:32 METAR KEWN 181532Z 02010KT 10SM SCT024 BKN031 26/22 A2998 RMK AO2 T02610217 =
2017-09-18 10:54 METAR KEWN 181454Z 03014G21KT 10SM SCT022 BKN029 26/22 A2999 RMK AO2 SLP154
                 T02560217 50003 =
2017-09-18 10:44 METAR KEWN 181444Z 02010G17KT 10SM FEW020 SCT027 26/22 A2999 RMK AO2 T02560217 =
2017-09-18 10:25 METAR KEWN 181425Z 36011G17KT 10SM SCT021 BKN028 25/21 A2999 RMK AO2 T02500211 =
2017-09-18 10:16 METAR KEWN 181416Z 01016KT 10SM SCT026 25/21 A2999 RMK AO2 T02500206 =
2017-09-18 09:54 METAR KEWN 181354Z 02013G19KT 10SM SCT018 OVC024 24/21 A2999 RMK AO2 SLP156
                 T02390211 =
2017-09-18 09:28 METAR KEWN 181328Z 01012G17KT 10SM SCT012 BKN019 24/21 A2999 RMK AO2 T02390211 =
2017-09-18 08:54 METAR KEWN 181254Z 36008KT 9SM OVC013 23/22 A2998 RMK AO2 SLP153 T02280217 =
2017-09-18 08:21 METAR KEWN 181221Z 01007KT 8SM OVC010 23/22 A2998 RMK AO2 T02280217 =
2017-09-18 07:54 METAR KEWN 181154Z 36008KT 8SM BKN009 OVC019 22/22 A2998 RMK AO2 SLP151 70037
                 T02220217 10222 20211 53003 =

Support USWX by starting your Amazon purchase here.